sensor_id;sensor_type;location;lat;lon;timestamp;temperature;humidity
54788;DHT22;59598;48.112;16.280;2023-03-01T00:00:42;-1.20;1.00
54788;DHT22;59598;48.112;16.280;2023-03-01T00:03:17;-1.30;4.80
54788;DHT22;59598;48.112;16.280;2023-03-01T00:05:52;-1.30;11.10
54788;DHT22;59598;48.112;16.280;2023-03-01T00:08:27;-1.30;10.70
54788;DHT22;59598;48.112;16.280;2023-03-01T00:11:18;-1.30;14.40
54788;DHT22;59598;48.112;16.280;2023-03-01T00:13:54;-1.30;9.10
54788;DHT22;59598;48.112;16.280;2023-03-01T00:16:34;-1.30;18.10
54788;DHT22;59598;48.112;16.280;2023-03-01T00:19:17;-1.30;37.50
54788;DHT22;59598;48.112;16.280;2023-03-01T00:21:52;-1.30;72.90
54788;DHT22;59598;48.112;16.280;2023-03-01T00:24:26;-1.30;14.30
54788;DHT22;59598;48.112;16.280;2023-03-01T00:26:57;-1.40;1.00
54788;DHT22;59598;48.112;16.280;2023-03-01T00:29:29;-1.40;5.20
54788;DHT22;59598;48.112;16.280;2023-03-01T00:32:00;-1.40;1.00
54788;DHT22;59598;48.112;16.280;2023-03-01T00:34:37;-1.40;1.00
54788;DHT22;59598;48.112;16.280;2023-03-01T00:37:09;-1.40;1.00
54788;DHT22;59598;48.112;16.280;2023-03-01T00:39:40;-1.40;1.00
54788;DHT22;59598;48.112;16.280;2023-03-01T00:42:14;-1.40;1.00
54788;DHT22;59598;48.112;16.280;2023-03-01T00:44:46;-1.40;1.00
54788;DHT22;59598;48.112;16.280;2023-03-01T00:47:26;-1.40;1.00
54788;DHT22;59598;48.112;16.280;2023-03-01T00:50:00;-1.40;1.00
54788;DHT22;59598;48.112;16.280;2023-03-01T00:52:34;-1.40;1.00
54788;DHT22;59598;48.112;16.280;2023-03-01T00:55:09;-1.40;1.00
54788;DHT22;59598;48.112;16.280;2023-03-01T00:57:41;-1.50;1.00
54788;DHT22;59598;48.112;16.280;2023-03-01T01:03:07;-1.60;1.00
54788;DHT22;59598;48.112;16.280;2023-03-01T01:05:38;-1.50;1.00
54788;DHT22;59598;48.112;16.280;2023-03-01T01:08:09;-1.40;4.30
54788;DHT22;59598;48.112;16.280;2023-03-01T01:10:46;-1.40;1.00
54788;DHT22;59598;48.112;16.280;2023-03-01T01:13:23;-1.30;1.00
54788;DHT22;59598;48.112;16.280;2023-03-01T01:16:01;-1.20;1.00
54788;DHT22;59598;48.112;16.280;2023-03-01T01:18:35;-1.20;61.00
54788;DHT22;59598;48.112;16.280;2023-03-01T01:21:12;-1.10;42.60
54788;DHT22;59598;48.112;16.280;2023-03-01T01:23:46;-1.10;22.00
54788;DHT22;59598;48.112;16.280;2023-03-01T01:26:31;-1.00;1.00
54788;DHT22;59598;48.112;16.280;2023-03-01T01:29:05;-0.80;1.00
54788;DHT22;59598;48.112;16.280;2023-03-01T01:31:38;-0.70;1.00
54788;DHT22;59598;48.112;16.280;2023-03-01T01:34:21;-0.60;1.00
54788;DHT22;59598;48.112;16.280;2023-03-01T01:36:53;-0.50;1.00
54788;DHT22;59598;48.112;16.280;2023-03-01T01:39:34;-0.40;1.00
54788;DHT22;59598;48.112;16.280;2023-03-01T01:42:08;-0.30;1.00
54788;DHT22;59598;48.112;16.280;2023-03-01T01:45:29;-0.20;1.00
54788;DHT22;59598;48.112;16.280;2023-03-01T01:48:14;-0.10;1.00
54788;DHT22;59598;48.112;16.280;2023-03-01T01:50:59;0.00;1.00
54788;DHT22;59598;48.112;16.280;2023-03-01T01:53:31;0.10;1.00
54788;DHT22;59598;48.112;16.280;2023-03-01T01:56:03;0.10;1.00
54788;DHT22;59598;48.112;16.280;2023-03-01T01:58:38;0.10;1.00
54788;DHT22;59598;48.112;16.280;2023-03-01T02:01:13;0.20;1.00
54788;DHT22;59598;48.112;16.280;2023-03-01T02:03:51;0.20;1.00
54788;DHT22;59598;48.112;16.280;2023-03-01T02:06:32;0.30;1.00
54788;DHT22;59598;48.112;16.280;2023-03-01T02:09:11;0.30;1.00
54788;DHT22;59598;48.112;16.280;2023-03-01T02:11:44;0.50;1.00
54788;DHT22;59598;48.112;16.280;2023-03-01T02:14:16;0.50;1.00
54788;DHT22;59598;48.112;16.280;2023-03-01T02:16:57;0.60;1.00
54788;DHT22;59598;48.112;16.280;2023-03-01T02:22:31;0.80;1.00
54788;DHT22;59598;48.112;16.280;2023-03-01T02:30:49;0.90;1.00
54788;DHT22;59598;48.112;16.280;2023-03-01T02:33:44;0.90;1.00
54788;DHT22;59598;48.112;16.280;2023-03-01T02:36:24;0.90;1.00
54788;DHT22;59598;48.112;16.280;2023-03-01T02:38:59;0.90;1.00
54788;DHT22;59598;48.112;16.280;2023-03-01T02:41:38;0.90;1.00
54788;DHT22;59598;48.112;16.280;2023-03-01T02:44:14;0.80;1.00
54788;DHT22;59598;48.112;16.280;2023-03-01T02:46:51;0.90;1.00
54788;DHT22;59598;48.112;16.280;2023-03-01T02:49:31;0.80;1.00
54788;DHT22;59598;48.112;16.280;2023-03-01T02:55:09;0.60;1.00
54788;DHT22;59598;48.112;16.280;2023-03-01T02:57:46;0.50;1.00
54788;DHT22;59598;48.112;16.280;2023-03-01T03:00:31;0.50;1.00
54788;DHT22;59598;48.112;16.280;2023-03-01T03:03:07;0.50;1.00
54788;DHT22;59598;48.112;16.280;2023-03-01T03:05:44;0.60;1.00
54788;DHT22;59598;48.112;16.280;2023-03-01T03:08:19;0.60;1.00
54788;DHT22;59598;48.112;16.280;2023-03-01T03:10:54;0.70;1.00
54788;DHT22;59598;48.112;16.280;2023-03-01T03:13:30;0.70;1.00
54788;DHT22;59598;48.112;16.280;2023-03-01T03:16:03;0.60;1.00
54788;DHT22;59598;48.112;16.280;2023-03-01T03:18:35;0.50;1.00
54788;DHT22;59598;48.112;16.280;2023-03-01T03:21:11;0.40;1.00
54788;DHT22;59598;48.112;16.280;2023-03-01T03:23:43;0.40;1.00
54788;DHT22;59598;48.112;16.280;2023-03-01T03:26:17;0.40;1.00
54788;DHT22;59598;48.112;16.280;2023-03-01T03:28:49;0.40;1.00
54788;DHT22;59598;48.112;16.280;2023-03-01T03:31:21;0.40;1.00
54788;DHT22;59598;48.112;16.280;2023-03-01T03:33:54;0.40;1.00
54788;DHT22;59598;48.112;16.280;2023-03-01T03:36:27;0.40;1.00
54788;DHT22;59598;48.112;16.280;2023-03-01T03:38:58;0.30;1.00
54788;DHT22;59598;48.112;16.280;2023-03-01T03:41:30;0.40;1.00
54788;DHT22;59598;48.112;16.280;2023-03-01T03:44:04;0.40;1.00
54788;DHT22;59598;48.112;16.280;2023-03-01T03:46:39;0.50;1.00
54788;DHT22;59598;48.112;16.280;2023-03-01T03:49:14;0.50;1.00
54788;DHT22;59598;48.112;16.280;2023-03-01T03:51:46;0.50;1.00
54788;DHT22;59598;48.112;16.280;2023-03-01T03:54:17;0.50;1.00
54788;DHT22;59598;48.112;16.280;2023-03-01T03:56:49;0.50;1.00
54788;DHT22;59598;48.112;16.280;2023-03-01T03:59:22;0.50;1.00
54788;DHT22;59598;48.112;16.280;2023-03-01T04:01:59;0.60;1.00
54788;DHT22;59598;48.112;16.280;2023-03-01T04:04:34;0.70;1.00
54788;DHT22;59598;48.112;16.280;2023-03-01T04:07:08;0.80;1.00
54788;DHT22;59598;48.112;16.280;2023-03-01T04:09:49;0.80;1.00
54788;DHT22;59598;48.112;16.280;2023-03-01T04:12:23;0.80;1.00
54788;DHT22;59598;48.112;16.280;2023-03-01T04:14:55;0.90;1.00
54788;DHT22;59598;48.112;16.280;2023-03-01T04:17:27;0.90;1.00
54788;DHT22;59598;48.112;16.280;2023-03-01T04:19:58;0.90;1.00
54788;DHT22;59598;48.112;16.280;2023-03-01T04:22:32;0.90;1.00
54788;DHT22;59598;48.112;16.280;2023-03-01T04:25:09;0.90;1.00
54788;DHT22;59598;48.112;16.280;2023-03-01T04:27:45;0.90;1.00
54788;DHT22;59598;48.112;16.280;2023-03-01T04:30:20;0.80;1.00
54788;DHT22;59598;48.112;16.280;2023-03-01T04:32:56;0.90;1.00
54788;DHT22;59598;48.112;16.280;2023-03-01T04:35:27;0.80;1.00
54788;DHT22;59598;48.112;16.280;2023-03-01T04:38:05;0.80;1.00
54788;DHT22;59598;48.112;16.280;2023-03-01T04:40:39;0.80;1.00
54788;DHT22;59598;48.112;16.280;2023-03-01T04:43:14;0.80;1.00
54788;DHT22;59598;48.112;16.280;2023-03-01T04:45:48;0.80;1.00
54788;DHT22;59598;48.112;16.280;2023-03-01T04:48:22;0.70;1.00
54788;DHT22;59598;48.112;16.280;2023-03-01T04:50:53;0.70;1.00
54788;DHT22;59598;48.112;16.280;2023-03-01T04:53:28;0.70;1.00
54788;DHT22;59598;48.112;16.280;2023-03-01T04:56:06;0.80;1.00
54788;DHT22;59598;48.112;16.280;2023-03-01T04:58:38;0.80;1.00
54788;DHT22;59598;48.112;16.280;2023-03-01T05:01:18;0.80;1.00
54788;DHT22;59598;48.112;16.280;2023-03-01T05:03:52;0.90;1.00
54788;DHT22;59598;48.112;16.280;2023-03-01T05:06:29;1.00;1.00
54788;DHT22;59598;48.112;16.280;2023-03-01T05:09:01;1.00;1.00
54788;DHT22;59598;48.112;16.280;2023-03-01T05:11:38;1.10;1.00
54788;DHT22;59598;48.112;16.280;2023-03-01T05:14:15;1.10;1.00
54788;DHT22;59598;48.112;16.280;2023-03-01T05:16:49;1.20;1.00
54788;DHT22;59598;48.112;16.280;2023-03-01T05:19:21;1.20;1.00
54788;DHT22;59598;48.112;16.280;2023-03-01T05:21:56;1.20;1.00
54788;DHT22;59598;48.112;16.280;2023-03-01T05:24:37;1.20;1.00
54788;DHT22;59598;48.112;16.280;2023-03-01T05:27:14;1.30;1.00
54788;DHT22;59598;48.112;16.280;2023-03-01T05:29:48;1.30;1.00
54788;DHT22;59598;48.112;16.280;2023-03-01T05:32:23;1.20;1.00
54788;DHT22;59598;48.112;16.280;2023-03-01T05:34:54;1.20;1.00
54788;DHT22;59598;48.112;16.280;2023-03-01T05:37:26;1.30;1.00
54788;DHT22;59598;48.112;16.280;2023-03-01T05:40:03;1.30;1.00
54788;DHT22;59598;48.112;16.280;2023-03-01T05:42:38;1.40;1.00
54788;DHT22;59598;48.112;16.280;2023-03-01T05:45:10;1.40;1.00
54788;DHT22;59598;48.112;16.280;2023-03-01T05:47:47;1.50;1.00
54788;DHT22;59598;48.112;16.280;2023-03-01T05:50:26;1.50;1.00
54788;DHT22;59598;48.112;16.280;2023-03-01T05:53:11;1.60;1.00
54788;DHT22;59598;48.112;16.280;2023-03-01T05:55:44;1.70;1.00
54788;DHT22;59598;48.112;16.280;2023-03-01T05:58:19;1.70;1.00
54788;DHT22;59598;48.112;16.280;2023-03-01T06:00:51;1.80;1.00
54788;DHT22;59598;48.112;16.280;2023-03-01T06:03:25;1.90;28.60
54788;DHT22;59598;48.112;16.280;2023-03-01T06:06:03;1.90;97.50
54788;DHT22;59598;48.112;16.280;2023-03-01T06:08:39;1.90;99.90
54788;DHT22;59598;48.112;16.280;2023-03-01T06:11:16;2.00;99.90
54788;DHT22;59598;48.112;16.280;2023-03-01T06:13:51;2.00;99.90
54788;DHT22;59598;48.112;16.280;2023-03-01T06:16:23;1.80;99.90
54788;DHT22;59598;48.112;16.280;2023-03-01T06:19:00;1.70;99.90
54788;DHT22;59598;48.112;16.280;2023-03-01T06:21:31;1.70;99.90
54788;DHT22;59598;48.112;16.280;2023-03-01T06:24:04;1.60;99.90
54788;DHT22;59598;48.112;16.280;2023-03-01T06:26:38;1.60;99.90
54788;DHT22;59598;48.112;16.280;2023-03-01T06:29:13;1.70;99.90
54788;DHT22;59598;48.112;16.280;2023-03-01T06:31:47;1.70;99.90
54788;DHT22;59598;48.112;16.280;2023-03-01T06:34:21;1.80;99.90
54788;DHT22;59598;48.112;16.280;2023-03-01T06:36:56;1.90;99.90
54788;DHT22;59598;48.112;16.280;2023-03-01T06:39:30;2.00;99.90
54788;DHT22;59598;48.112;16.280;2023-03-01T06:42:02;2.00;99.90
54788;DHT22;59598;48.112;16.280;2023-03-01T06:44:34;2.20;99.90
54788;DHT22;59598;48.112;16.280;2023-03-01T06:47:06;2.30;99.90
54788;DHT22;59598;48.112;16.280;2023-03-01T06:49:37;2.50;99.90
54788;DHT22;59598;48.112;16.280;2023-03-01T06:52:09;2.60;99.90
54788;DHT22;59598;48.112;16.280;2023-03-01T06:54:45;2.70;99.90
54788;DHT22;59598;48.112;16.280;2023-03-01T06:57:18;2.80;99.90
54788;DHT22;59598;48.112;16.280;2023-03-01T06:59:53;2.70;99.90
54788;DHT22;59598;48.112;16.280;2023-03-01T07:02:24;2.80;99.90
54788;DHT22;59598;48.112;16.280;2023-03-01T07:04:58;2.80;99.90
54788;DHT22;59598;48.112;16.280;2023-03-01T07:07:33;2.60;99.90
54788;DHT22;59598;48.112;16.280;2023-03-01T07:10:06;2.40;99.90
54788;DHT22;59598;48.112;16.280;2023-03-01T07:12:41;2.40;99.90
54788;DHT22;59598;48.112;16.280;2023-03-01T07:15:12;2.20;99.90
54788;DHT22;59598;48.112;16.280;2023-03-01T07:18:06;2.20;99.90
54788;DHT22;59598;48.112;16.280;2023-03-01T07:21:06;2.20;99.90
54788;DHT22;59598;48.112;16.280;2023-03-01T07:23:41;2.30;99.90
54788;DHT22;59598;48.112;16.280;2023-03-01T07:26:12;2.60;99.90
54788;DHT22;59598;48.112;16.280;2023-03-01T07:28:44;2.90;99.90
54788;DHT22;59598;48.112;16.280;2023-03-01T07:31:15;3.30;99.90
54788;DHT22;59598;48.112;16.280;2023-03-01T07:33:50;3.60;99.90
54788;DHT22;59598;48.112;16.280;2023-03-01T07:36:24;3.90;99.90
54788;DHT22;59598;48.112;16.280;2023-03-01T07:38:56;4.10;99.90
54788;DHT22;59598;48.112;16.280;2023-03-01T07:41:29;4.20;99.90
54788;DHT22;59598;48.112;16.280;2023-03-01T07:44:05;4.40;99.90
54788;DHT22;59598;48.112;16.280;2023-03-01T07:46:40;4.50;99.90
54788;DHT22;59598;48.112;16.280;2023-03-01T07:49:17;4.60;99.90
54788;DHT22;59598;48.112;16.280;2023-03-01T07:51:48;4.70;99.90
54788;DHT22;59598;48.112;16.280;2023-03-01T07:54:19;4.70;99.90
54788;DHT22;59598;48.112;16.280;2023-03-01T07:56:51;4.60;99.90
54788;DHT22;59598;48.112;16.280;2023-03-01T07:59:23;4.60;99.90
54788;DHT22;59598;48.112;16.280;2023-03-01T08:01:59;4.70;99.90
54788;DHT22;59598;48.112;16.280;2023-03-01T08:04:33;4.80;99.90
54788;DHT22;59598;48.112;16.280;2023-03-01T08:07:05;4.90;99.90
54788;DHT22;59598;48.112;16.280;2023-03-01T08:09:39;4.90;99.90
54788;DHT22;59598;48.112;16.280;2023-03-01T08:12:10;4.90;99.90
54788;DHT22;59598;48.112;16.280;2023-03-01T08:14:47;5.00;99.90
54788;DHT22;59598;48.112;16.280;2023-03-01T08:17:19;5.10;99.90
54788;DHT22;59598;48.112;16.280;2023-03-01T08:19:53;5.30;99.90
54788;DHT22;59598;48.112;16.280;2023-03-01T08:22:25;5.20;99.90
54788;DHT22;59598;48.112;16.280;2023-03-01T08:24:59;5.30;99.90
54788;DHT22;59598;48.112;16.280;2023-03-01T08:27:30;5.60;99.90
54788;DHT22;59598;48.112;16.280;2023-03-01T08:30:02;5.80;99.90
54788;DHT22;59598;48.112;16.280;2023-03-01T08:32:41;5.80;99.90
54788;DHT22;59598;48.112;16.280;2023-03-01T08:35:15;6.10;99.90
54788;DHT22;59598;48.112;16.280;2023-03-01T08:37:51;6.20;99.90
54788;DHT22;59598;48.112;16.280;2023-03-01T08:40:25;5.90;99.90
54788;DHT22;59598;48.112;16.280;2023-03-01T08:43:03;5.90;99.90
54788;DHT22;59598;48.112;16.280;2023-03-01T08:45:34;5.30;99.90
54788;DHT22;59598;48.112;16.280;2023-03-01T08:48:11;5.50;99.90
54788;DHT22;59598;48.112;16.280;2023-03-01T08:50:42;5.90;99.90
54788;DHT22;59598;48.112;16.280;2023-03-01T08:53:16;6.00;99.90
54788;DHT22;59598;48.112;16.280;2023-03-01T08:55:48;6.20;99.90
54788;DHT22;59598;48.112;16.280;2023-03-01T08:58:21;6.00;99.90
54788;DHT22;59598;48.112;16.280;2023-03-01T09:00:52;6.20;99.90
54788;DHT22;59598;48.112;16.280;2023-03-01T09:03:27;6.10;99.90
54788;DHT22;59598;48.112;16.280;2023-03-01T09:06:05;6.00;99.90
54788;DHT22;59598;48.112;16.280;2023-03-01T09:08:45;5.90;99.90
54788;DHT22;59598;48.112;16.280;2023-03-01T09:11:21;5.50;99.90
54788;DHT22;59598;48.112;16.280;2023-03-01T09:13:59;5.90;99.90
54788;DHT22;59598;48.112;16.280;2023-03-01T09:16:38;6.20;99.90
54788;DHT22;59598;48.112;16.280;2023-03-01T09:19:13;6.40;99.90
54788;DHT22;59598;48.112;16.280;2023-03-01T09:21:44;6.40;99.90
54788;DHT22;59598;48.112;16.280;2023-03-01T09:24:23;6.80;99.90
54788;DHT22;59598;48.112;16.280;2023-03-01T09:26:56;7.30;99.90
54788;DHT22;59598;48.112;16.280;2023-03-01T09:29:27;7.20;99.90
54788;DHT22;59598;48.112;16.280;2023-03-01T09:32:00;7.70;99.90
54788;DHT22;59598;48.112;16.280;2023-03-01T09:34:35;8.10;99.90
54788;DHT22;59598;48.112;16.280;2023-03-01T09:37:28;8.30;99.90
54788;DHT22;59598;48.112;16.280;2023-03-01T09:40:02;7.50;99.90
54788;DHT22;59598;48.112;16.280;2023-03-01T09:43:05;6.90;99.90
54788;DHT22;59598;48.112;16.280;2023-03-01T09:46:06;6.70;99.90
54788;DHT22;59598;48.112;16.280;2023-03-01T09:49:27;6.90;99.90
54788;DHT22;59598;48.112;16.280;2023-03-01T09:55:50;7.90;99.90
54788;DHT22;59598;48.112;16.280;2023-03-01T10:02:26;7.50;99.90
54788;DHT22;59598;48.112;16.280;2023-03-01T10:09:13;7.80;99.90
54788;DHT22;59598;48.112;16.280;2023-03-01T10:12:21;7.70;99.90
54788;DHT22;59598;48.112;16.280;2023-03-01T10:15:36;8.00;99.90
54788;DHT22;59598;48.112;16.280;2023-03-01T10:18:39;8.10;99.90
54788;DHT22;59598;48.112;16.280;2023-03-01T10:21:44;8.20;99.90
54788;DHT22;59598;48.112;16.280;2023-03-01T10:24:20;8.10;99.90
54788;DHT22;59598;48.112;16.280;2023-03-01T10:27:24;8.50;99.90
54788;DHT22;59598;48.112;16.280;2023-03-01T10:33:22;9.20;99.90
54788;DHT22;59598;48.112;16.280;2023-03-01T10:35:56;9.80;99.90
54788;DHT22;59598;48.112;16.280;2023-03-01T10:38:48;10.00;99.90
54788;DHT22;59598;48.112;16.280;2023-03-01T10:41:26;9.50;1.00
54788;DHT22;59598;48.112;16.280;2023-03-01T10:44:04;9.30;83.30
54788;DHT22;59598;48.112;16.280;2023-03-01T10:46:38;9.30;1.00
54788;DHT22;59598;48.112;16.280;2023-03-01T10:49:23;8.70;88.80
54788;DHT22;59598;48.112;16.280;2023-03-01T10:52:17;8.90;99.90
54788;DHT22;59598;48.112;16.280;2023-03-01T10:55:04;8.70;45.90
54788;DHT22;59598;48.112;16.280;2023-03-01T11:01:03;9.90;99.90
54788;DHT22;59598;48.112;16.280;2023-03-01T11:03:41;10.50;99.90
54788;DHT22;59598;48.112;16.280;2023-03-01T11:06:21;10.10;1.00
54788;DHT22;59598;48.112;16.280;2023-03-01T11:08:53;9.80;1.00
54788;DHT22;59598;48.112;16.280;2023-03-01T11:11:33;9.70;1.00
54788;DHT22;59598;48.112;16.280;2023-03-01T11:14:21;10.00;99.90
54788;DHT22;59598;48.112;16.280;2023-03-01T11:17:05;10.10;5.40
54788;DHT22;59598;48.112;16.280;2023-03-01T11:23:04;10.90;1.00
54788;DHT22;59598;48.112;16.280;2023-03-01T11:25:51;10.80;1.00
54788;DHT22;59598;48.112;16.280;2023-03-01T11:28:32;11.50;1.00
54788;DHT22;59598;48.112;16.280;2023-03-01T11:31:15;11.00;1.00
54788;DHT22;59598;48.112;16.280;2023-03-01T11:33:51;11.10;1.00
54788;DHT22;59598;48.112;16.280;2023-03-01T11:39:43;12.50;99.90
54788;DHT22;59598;48.112;16.280;2023-03-01T11:42:39;12.60;1.00
54788;DHT22;59598;48.112;16.280;2023-03-01T11:45:17;12.10;99.90
54788;DHT22;59598;48.112;16.280;2023-03-01T11:51:24;11.40;1.00
54788;DHT22;59598;48.112;16.280;2023-03-01T11:54:12;11.70;99.90
54788;DHT22;59598;48.112;16.280;2023-03-01T12:03:30;10.50;39.60
54788;DHT22;59598;48.112;16.280;2023-03-01T12:06:12;10.50;1.00
54788;DHT22;59598;48.112;16.280;2023-03-01T12:18:31;11.50;99.90
54788;DHT22;59598;48.112;16.280;2023-03-01T12:21:30;11.60;99.90
54788;DHT22;59598;48.112;16.280;2023-03-01T12:24:47;11.00;53.60
54788;DHT22;59598;48.112;16.280;2023-03-01T12:30:55;10.80;99.90
54788;DHT22;59598;48.112;16.280;2023-03-01T12:33:56;11.10;99.90
54788;DHT22;59598;48.112;16.280;2023-03-01T12:36:58;11.20;1.00
54788;DHT22;59598;48.112;16.280;2023-03-01T12:52:45;10.20;99.90
54788;DHT22;59598;48.112;16.280;2023-03-01T12:55:24;10.50;99.90
54788;DHT22;59598;48.112;16.280;2023-03-01T13:09:50;11.20;17.10
54788;DHT22;59598;48.112;16.280;2023-03-01T13:15:28;10.90;1.00
54788;DHT22;59598;48.112;16.280;2023-03-01T13:20:51;11.60;1.00
54788;DHT22;59598;48.112;16.280;2023-03-01T13:23:36;11.30;1.00
54788;DHT22;59598;48.112;16.280;2023-03-01T13:26:14;11.50;99.90
54788;DHT22;59598;48.112;16.280;2023-03-01T13:28:54;12.30;99.90
54788;DHT22;59598;48.112;16.280;2023-03-01T13:34:06;14.00;1.00
54788;DHT22;59598;48.112;16.280;2023-03-01T13:37:56;13.80;1.00
54788;DHT22;59598;48.112;16.280;2023-03-01T13:42:57;12.70;1.00
54788;DHT22;59598;48.112;16.280;2023-03-01T13:48:50;12.60;1.00
54788;DHT22;59598;48.112;16.280;2023-03-01T13:51:27;11.70;99.90
54788;DHT22;59598;48.112;16.280;2023-03-01T13:53:59;11.80;1.00
54788;DHT22;59598;48.112;16.280;2023-03-01T13:56:36;11.70;1.00
54788;DHT22;59598;48.112;16.280;2023-03-01T13:59:22;11.40;1.00
54788;DHT22;59598;48.112;16.280;2023-03-01T14:01:59;11.20;1.00
54788;DHT22;59598;48.112;16.280;2023-03-01T14:04:33;11.20;1.00
54788;DHT22;59598;48.112;16.280;2023-03-01T14:07:22;11.10;99.90
54788;DHT22;59598;48.112;16.280;2023-03-01T14:10:03;11.30;1.00
54788;DHT22;59598;48.112;16.280;2023-03-01T14:15:22;11.50;1.00
54788;DHT22;59598;48.112;16.280;2023-03-01T14:18:16;11.30;1.00
54788;DHT22;59598;48.112;16.280;2023-03-01T14:20:59;11.00;99.90
54788;DHT22;59598;48.112;16.280;2023-03-01T14:23:41;10.90;99.90
54788;DHT22;59598;48.112;16.280;2023-03-01T14:26:21;10.70;99.90
54788;DHT22;59598;48.112;16.280;2023-03-01T14:28:53;10.40;1.00
54788;DHT22;59598;48.112;16.280;2023-03-01T14:31:37;10.20;1.00
54788;DHT22;59598;48.112;16.280;2023-03-01T14:34:22;10.00;99.90
54788;DHT22;59598;48.112;16.280;2023-03-01T14:37:09;9.90;99.90
54788;DHT22;59598;48.112;16.280;2023-03-01T14:39:41;9.80;99.90
54788;DHT22;59598;48.112;16.280;2023-03-01T14:42:15;9.80;99.90
54788;DHT22;59598;48.112;16.280;2023-03-01T14:44:53;9.70;99.90
54788;DHT22;59598;48.112;16.280;2023-03-01T14:47:33;9.40;99.90
54788;DHT22;59598;48.112;16.280;2023-03-01T14:53:05;9.50;97.80
54788;DHT22;59598;48.112;16.280;2023-03-01T14:55:42;9.40;40.50
54788;DHT22;59598;48.112;16.280;2023-03-01T14:58:24;9.50;52.30
54788;DHT22;59598;48.112;16.280;2023-03-01T15:01:01;9.40;98.80
54788;DHT22;59598;48.112;16.280;2023-03-01T15:03:37;9.20;78.30
54788;DHT22;59598;48.112;16.280;2023-03-01T15:06:16;8.90;34.60
54788;DHT22;59598;48.112;16.280;2023-03-01T15:08:53;8.90;99.90
54788;DHT22;59598;48.112;16.280;2023-03-01T15:11:32;9.10;99.90
54788;DHT22;59598;48.112;16.280;2023-03-01T15:14:42;9.10;99.90
54788;DHT22;59598;48.112;16.280;2023-03-01T15:17:33;9.10;31.80
54788;DHT22;59598;48.112;16.280;2023-03-01T15:20:15;8.90;44.40
54788;DHT22;59598;48.112;16.280;2023-03-01T15:22:57;8.70;1.00
54788;DHT22;59598;48.112;16.280;2023-03-01T15:25:30;8.60;99.90
54788;DHT22;59598;48.112;16.280;2023-03-01T15:28:19;8.50;99.90
54788;DHT22;59598;48.112;16.280;2023-03-01T15:31:24;8.40;99.90
54788;DHT22;59598;48.112;16.280;2023-03-01T15:34:26;8.30;99.90
54788;DHT22;59598;48.112;16.280;2023-03-01T15:37:02;8.30;99.90
54788;DHT22;59598;48.112;16.280;2023-03-01T15:39:43;8.20;99.90
54788;DHT22;59598;48.112;16.280;2023-03-01T15:47:53;8.20;99.90
54788;DHT22;59598;48.112;16.280;2023-03-01T15:53:10;8.20;99.90
54788;DHT22;59598;48.112;16.280;2023-03-01T15:55:43;8.10;1.00
54788;DHT22;59598;48.112;16.280;2023-03-01T15:58:22;8.00;1.00
54788;DHT22;59598;48.112;16.280;2023-03-01T16:00:55;8.00;1.00
54788;DHT22;59598;48.112;16.280;2023-03-01T16:03:28;7.90;1.00
54788;DHT22;59598;48.112;16.280;2023-03-01T16:06:02;7.90;1.00
54788;DHT22;59598;48.112;16.280;2023-03-01T16:08:39;7.90;1.00
54788;DHT22;59598;48.112;16.280;2023-03-01T16:11:18;7.80;1.00
54788;DHT22;59598;48.112;16.280;2023-03-01T16:13:52;7.80;1.00
54788;DHT22;59598;48.112;16.280;2023-03-01T16:16:29;7.80;1.00
54788;DHT22;59598;48.112;16.280;2023-03-01T16:19:01;7.70;1.00
54788;DHT22;59598;48.112;16.280;2023-03-01T16:21:34;7.70;1.00
54788;DHT22;59598;48.112;16.280;2023-03-01T16:24:06;7.60;1.00
54788;DHT22;59598;48.112;16.280;2023-03-01T16:26:40;7.50;1.00
54788;DHT22;59598;48.112;16.280;2023-03-01T16:29:17;7.50;1.00
54788;DHT22;59598;48.112;16.280;2023-03-01T16:31:51;7.40;1.00
54788;DHT22;59598;48.112;16.280;2023-03-01T16:34:43;7.40;1.00
54788;DHT22;59598;48.112;16.280;2023-03-01T16:37:15;7.30;1.00
54788;DHT22;59598;48.112;16.280;2023-03-01T16:39:47;7.30;1.00
54788;DHT22;59598;48.112;16.280;2023-03-01T16:42:22;7.30;1.00
54788;DHT22;59598;48.112;16.280;2023-03-01T16:44:56;7.30;54.40
54788;DHT22;59598;48.112;16.280;2023-03-01T16:47:28;7.30;75.70
54788;DHT22;59598;48.112;16.280;2023-03-01T16:50:01;7.40;99.90
54788;DHT22;59598;48.112;16.280;2023-03-01T16:52:35;7.30;47.20
54788;DHT22;59598;48.112;16.280;2023-03-01T16:55:07;7.40;43.80
54788;DHT22;59598;48.112;16.280;2023-03-01T16:57:42;7.40;1.00
54788;DHT22;59598;48.112;16.280;2023-03-01T17:00:14;7.30;1.00
54788;DHT22;59598;48.112;16.280;2023-03-01T17:02:56;7.30;99.90
54788;DHT22;59598;48.112;16.280;2023-03-01T17:05:33;7.30;99.90
54788;DHT22;59598;48.112;16.280;2023-03-01T17:08:10;7.30;99.90
54788;DHT22;59598;48.112;16.280;2023-03-01T17:10:42;7.20;99.90
54788;DHT22;59598;48.112;16.280;2023-03-01T17:13:14;7.20;99.90
54788;DHT22;59598;48.112;16.280;2023-03-01T17:15:48;7.20;99.90
54788;DHT22;59598;48.112;16.280;2023-03-01T17:18:22;7.20;99.90
54788;DHT22;59598;48.112;16.280;2023-03-01T17:20:55;7.20;99.90
54788;DHT22;59598;48.112;16.280;2023-03-01T17:23:32;7.20;1.00
54788;DHT22;59598;48.112;16.280;2023-03-01T17:26:04;7.10;53.60
54788;DHT22;59598;48.112;16.280;2023-03-01T17:28:40;7.20;99.90
54788;DHT22;59598;48.112;16.280;2023-03-01T17:31:16;7.10;1.00
54788;DHT22;59598;48.112;16.280;2023-03-01T17:33:54;7.10;1.00
54788;DHT22;59598;48.112;16.280;2023-03-01T17:36:25;7.20;1.00
54788;DHT22;59598;48.112;16.280;2023-03-01T17:39:02;7.20;1.00
54788;DHT22;59598;48.112;16.280;2023-03-01T17:41:34;7.20;1.00
54788;DHT22;59598;48.112;16.280;2023-03-01T17:44:08;7.20;1.00
54788;DHT22;59598;48.112;16.280;2023-03-01T17:46:41;7.20;1.00
54788;DHT22;59598;48.112;16.280;2023-03-01T17:49:18;7.20;1.00
54788;DHT22;59598;48.112;16.280;2023-03-01T17:51:54;7.20;1.00
54788;DHT22;59598;48.112;16.280;2023-03-01T17:54:29;7.10;1.00
54788;DHT22;59598;48.112;16.280;2023-03-01T17:57:00;7.20;1.00
54788;DHT22;59598;48.112;16.280;2023-03-01T17:59:37;7.20;1.00
54788;DHT22;59598;48.112;16.280;2023-03-01T18:02:12;7.10;1.00
54788;DHT22;59598;48.112;16.280;2023-03-01T18:04:44;7.10;1.00
54788;DHT22;59598;48.112;16.280;2023-03-01T18:07:18;7.00;1.00
54788;DHT22;59598;48.112;16.280;2023-03-01T18:09:49;6.90;1.00
54788;DHT22;59598;48.112;16.280;2023-03-01T18:12:23;6.70;94.60
54788;DHT22;59598;48.112;16.280;2023-03-01T18:14:55;6.60;44.50
54788;DHT22;59598;48.112;16.280;2023-03-01T18:17:26;6.30;99.90
54788;DHT22;59598;48.112;16.280;2023-03-01T18:20:00;6.00;1.00
54788;DHT22;59598;48.112;16.280;2023-03-01T18:22:34;5.80;1.00
54788;DHT22;59598;48.112;16.280;2023-03-01T18:25:09;5.60;1.00
54788;DHT22;59598;48.112;16.280;2023-03-01T18:27:43;5.30;1.00
54788;DHT22;59598;48.112;16.280;2023-03-01T18:30:18;5.10;99.90
54788;DHT22;59598;48.112;16.280;2023-03-01T18:32:49;4.90;99.90
54788;DHT22;59598;48.112;16.280;2023-03-01T18:35:26;4.80;1.00